Time;durP1;ratioP1;P1;durP2;ratioP2;P2;SDS_P1;SDS_P2;PMS_P1;PMS_P2;Temp;Humidity;BMP_temperature;BMP_pressure;BME280_temperature;BME280_humidity;BME280_pressure;Samples;Min_cycle;Max_cycle;Signal;HPM_P1;HPM_P2
2021/04/16 00:01:49;;;;;;;;;;;;;;;-0.90;69.86;93659.94;5092213;28;19923;-46
2021/04/16 00:04:14;;;;;;;;;;;;;;;-0.98;70.31;93656.13;5091902;28;19913;-46
2021/04/16 00:06:40;;;;;;;;;;;;;;;-1.14;70.76;93650.44;5092266;28;20000;-45
2021/04/16 00:09:05;;;;;;;;;;;;;;;-1.09;70.33;93661.38;5091992;28;19913;-46
2021/04/16 00:11:30;;;;;;;;;;;;;;;-1.31;70.90;93666.44;5091754;28;19912;-47
2021/04/16 00:13:56;;;;;;;;;;;;;;;-1.67;70.68;93662.09;5091898;28;19916;-48
2021/04/16 00:16:23;;;;;;;;;;;;;;;-1.66;71.15;93668.25;5092124;28;19915;-45
2021/04/16 00:18:48;;;;;;;;;;;;;;;-1.57;71.90;93660.06;5095099;28;19919;-46
2021/04/16 00:21:13;;;;;;;;;;;;;;;-1.72;72.54;93670.88;5096026;28;19916;-46
2021/04/16 00:23:39;;;;;;;;;;;;;;;-1.56;72.68;93662.28;5095692;28;20362;-45
2021/04/16 00:26:04;;;;;;;;;;;;;;;-1.69;72.64;93661.09;5095781;28;19919;-46
2021/04/16 00:28:30;;;;;;;;;;;;;;;-1.54;72.05;93659.88;5095702;28;19969;-45
2021/04/16 00:30:59;;;;;;;;;;;;;;;-1.65;71.98;93654.28;5095675;28;19912;-45
2021/04/16 00:33:24;;;;;;;;;;;;;;;-1.65;71.84;93659.69;5095476;28;20002;-47
2021/04/16 00:35:50;;;;;;;;;;;;;;;-1.47;72.00;93658.03;5095882;28;19961;-45
2021/04/16 00:38:15;;;;;;;;;;;;;;;-1.33;71.53;93649.16;5095825;28;19964;-45
2021/04/16 00:40:42;;;;;;;;;;;;;;;-1.35;71.50;93654.28;5077480;28;20369;-47
2021/04/16 00:43:09;;;;;;;;;;;;;;;-1.28;71.23;93648.50;5095689;28;19916;-47
2021/04/16 00:45:34;;;;;;;;;;;;;;;-1.48;70.75;93656.53;5095284;28;19911;-46
2021/04/16 00:48:00;;;;;;;;;;;;;;;-1.77;70.48;93657.22;5095323;28;19912;-47
2021/04/16 00:50:27;;;;;;;;;;;;;;;-2.01;70.59;93667.34;5077526;28;19913;-46
2021/04/16 00:52:53;;;;;;;;;;;;;;;-1.77;70.27;93668.81;5077367;28;19913;-46
2021/04/16 00:55:18;;;;;;;;;;;;;;;-1.56;69.99;93656.88;5077425;28;19912;-47
2021/04/16 00:57:44;;;;;;;;;;;;;;;-1.56;69.85;93662.28;5095422;28;19919;-46
2021/04/16 01:00:10;;;;;;;;;;;;;;;-1.54;70.03;93668.00;5076840;28;19919;-48
2021/04/16 01:02:35;;;;;;;;;;;;;;;-1.74;70.17;93672.56;5095250;28;19916;-48
2021/04/16 01:05:00;;;;;;;;;;;;;;;-1.64;69.71;93666.59;5095494;28;20019;-46
2021/04/16 01:07:25;;;;;;;;;;;;;;;-1.74;70.02;93667.88;5094873;28;19912;-47
2021/04/16 01:09:51;;;;;;;;;;;;;;;-1.82;70.34;93658.63;5094877;28;19941;-47
2021/04/16 01:12:16;;;;;;;;;;;;;;;-1.92;70.66;93656.47;5094776;28;19912;-46
2021/04/16 01:14:44;;;;;;;;;;;;;;;-1.93;71.76;93653.03;5076773;28;19912;-47
2021/04/16 01:17:10;;;;;;;;;;;;;;;-1.73;71.12;93647.72;5095010;28;20371;-46
2021/04/16 01:19:45;;;;;;;;;;;;;;;-1.75;70.73;93652.84;5094928;28;19998;-46
2021/04/16 01:22:18;;;;;;;;;;;;;;;-1.86;70.77;93658.06;5076580;28;19916;-46
2021/04/16 01:24:44;;;;;;;;;;;;;;;-1.95;70.63;93654.69;5076566;28;20011;-47
2021/04/16 01:27:12;;;;;;;;;;;;;;;-2.16;71.02;93659.19;5076610;28;19948;-48
2021/04/16 01:29:43;;;;;;;;;;;;;;;-2.34;71.38;93656.63;5076582;28;19943;-46
2021/04/16 01:32:09;;;;;;;;;;;;;;;-2.38;72.17;93653.34;5094731;28;19915;-46
2021/04/16 01:34:34;;;;;;;;;;;;;;;-2.46;72.35;93654.91;5094727;28;20070;-48
2021/04/16 01:36:59;;;;;;;;;;;;;;;-2.45;72.91;93653.69;5094402;28;20401;-46
2021/04/16 01:39:26;;;;;;;;;;;;;;;-2.36;72.57;93650.94;5093982;28;20007;-46
2021/04/16 01:41:51;;;;;;;;;;;;;;;-2.44;72.74;93652.47;5094387;28;19925;-47
2021/04/16 01:44:18;;;;;;;;;;;;;;;-2.32;72.90;93657.66;5094247;28;20535;-46
2021/04/16 01:46:46;;;;;;;;;;;;;;;-2.25;72.58;93656.56;5094179;28;19912;-46
2021/04/16 01:49:11;;;;;;;;;;;;;;;-2.07;71.35;93655.69;5094021;28;19912;-46
2021/04/16 01:51:36;;;;;;;;;;;;;;;-2.18;71.08;93653.50;5094348;28;19920;-47
2021/04/16 01:54:12;;;;;;;;;;;;;;;-2.17;70.71;93651.56;5094354;28;20432;-47
2021/04/16 01:56:38;;;;;;;;;;;;;;;-2.17;70.58;93655.00;5094069;28;20321;-47
2021/04/16 01:59:14;;;;;;;;;;;;;;;-2.42;71.47;93663.56;5093945;28;19912;-46
2021/04/16 02:01:39;;;;;;;;;;;;;;;-2.51;72.07;93663.63;5093788;28;19942;-46
2021/04/16 02:04:05;;;;;;;;;;;;;;;-2.36;72.07;93645.53;5094157;28;19912;-46
2021/04/16 02:06:33;;;;;;;;;;;;;;;-2.26;71.39;93657.78;5094094;28;20310;-45
2021/04/16 02:08:59;;;;;;;;;;;;;;;-2.25;71.33;93656.56;5093825;28;19912;-46
2021/04/16 02:11:24;;;;;;;;;;;;;;;-2.20;70.97;93644.34;5093582;28;19919;-47
2021/04/16 02:13:49;;;;;;;;;;;;;;;-2.12;70.68;93653.63;5093979;28;19913;-46
2021/04/16 02:16:14;;;;;;;;;;;;;;;-2.12;70.20;93659.03;5093705;28;20303;-46
2021/04/16 02:18:40;;;;;;;;;;;;;;;-2.11;70.04;93663.22;5093881;28;19912;-46
2021/04/16 02:21:05;;;;;;;;;;;;;;;-2.06;69.86;93666.06;5093497;28;20307;-46
2021/04/16 02:23:30;;;;;;;;;;;;;;;-2.01;70.02;93661.94;5093364;28;20000;-46
2021/04/16 02:25:55;;;;;;;;;;;;;;;-2.10;70.16;93664.72;5093752;28;19919;-46
2021/04/16 02:28:21;;;;;;;;;;;;;;;-2.24;70.37;93660.75;5093692;28;19912;-45
2021/04/16 02:30:46;;;;;;;;;;;;;;;-2.51;71.12;93656.28;5093642;28;20306;-46
2021/04/16 02:33:12;;;;;;;;;;;;;;;-2.48;70.91;93660.78;5093649;28;19958;-47
2021/04/16 02:35:37;;;;;;;;;;;;;;;-2.38;70.86;93662.19;5093148;28;19920;-47
2021/04/16 02:38:02;;;;;;;;;;;;;;;-2.34;70.47;93668.19;5093560;28;19912;-47
2021/04/16 02:40:28;;;;;;;;;;;;;;;-2.60;71.25;93666.41;5092497;28;20386;-46
2021/04/16 02:42:53;;;;;;;;;;;;;;;-2.54;70.85;93669.97;5080956;28;20007;-47
2021/04/16 02:45:20;;;;;;;;;;;;;;;-2.54;70.50;93661.84;5073083;28;19962;-47
2021/04/16 02:47:45;;;;;;;;;;;;;;;-2.44;71.20;93668.69;5073001;28;20015;-46
2021/04/16 02:50:12;;;;;;;;;;;;;;;-2.60;71.81;93677.22;5073027;28;19959;-46
2021/04/16 02:52:37;;;;;;;;;;;;;;;-2.68;71.95;93663.28;5072966;28;19916;-46
2021/04/16 02:55:03;;;;;;;;;;;;;;;-2.47;71.28;93656.13;5072867;28;20398;-46
2021/04/16 02:57:28;;;;;;;;;;;;;;;-2.60;71.99;93667.13;5072873;28;19913;-47
2021/04/16 02:59:53;;;;;;;;;;;;;;;-2.74;72.39;93667.06;5072983;28;19912;-47
2021/04/16 03:02:19;;;;;;;;;;;;;;;-2.71;72.43;93679.66;5072684;28;19920;-46
2021/04/16 03:04:44;;;;;;;;;;;;;;;-2.64;72.28;93684.75;5054692;28;19923;-46
2021/04/16 03:07:09;;;;;;;;;;;;;;;-2.67;71.22;93682.94;5072578;28;19912;-46
2021/04/16 03:09:35;;;;;;;;;;;;;;;-2.60;71.57;93679.91;5072630;28;20415;-46
2021/04/16 03:12:00;;;;;;;;;;;;;;;-2.55;71.19;93685.44;5072622;28;20354;-46
2021/04/16 03:14:25;;;;;;;;;;;;;;;-2.57;71.32;93681.69;5072596;28;19920;-46
2021/04/16 03:16:51;;;;;;;;;;;;;;;-2.61;71.29;93692.69;5072638;28;20346;-47
2021/04/16 03:19:16;;;;;;;;;;;;;;;-2.88;71.23;93681.25;5072529;28;19912;-46
2021/04/16 03:21:41;;;;;;;;;;;;;;;-3.10;70.92;93689.59;5072093;28;19999;-47
2021/04/16 03:24:07;;;;;;;;;;;;;;;-2.99;71.09;93681.00;5072150;28;19927;-46
2021/04/16 03:26:32;;;;;;;;;;;;;;;-2.97;70.66;93679.34;5072462;28;19913;-46
2021/04/16 03:28:58;;;;;;;;;;;;;;;-2.82;70.85;93674.78;5072214;28;19913;-46
2021/04/16 03:31:24;;;;;;;;;;;;;;;-3.04;71.33;93679.66;5072307;28;19919;-47
2021/04/16 03:33:49;;;;;;;;;;;;;;;-3.01;71.77;93686.09;5072260;28;20375;-46
2021/04/16 03:36:14;;;;;;;;;;;;;;;-2.98;71.26;93685.94;5072013;28;19918;-48
2021/04/16 03:38:40;;;;;;;;;;;;;;;-3.02;71.95;93682.66;5072302;28;19919;-46
2021/04/16 03:41:05;;;;;;;;;;;;;;;-3.19;72.67;93692.31;5087613;28;19920;-47
2021/04/16 03:43:31;;;;;;;;;;;;;;;-3.00;73.20;93695.69;5092128;28;19963;-46
2021/04/16 03:45:56;;;;;;;;;;;;;;;-2.92;72.48;93700.31;5092413;28;19965;-46
2021/04/16 03:48:21;;;;;;;;;;;;;;;-2.99;72.86;93700.66;5092113;28;20310;-46
2021/04/16 03:50:46;;;;;;;;;;;;;;;-2.98;72.32;93698.69;5092418;28;20040;-46
2021/04/16 03:53:12;;;;;;;;;;;;;;;-3.18;72.23;93689.16;5092158;28;19935;-46
2021/04/16 03:55:37;;;;;;;;;;;;;;;-3.18;72.44;93691.84;5092244;28;19920;-48
2021/04/16 03:58:03;;;;;;;;;;;;;;;-3.32;73.18;93697.16;5092308;28;20367;-46
2021/04/16 04:00:31;;;;;;;;;;;;;;;-3.09;72.73;93693.78;5092176;28;19960;-47
2021/04/16 04:02:56;;;;;;;;;;;;;;;-2.99;72.25;93691.81;5091968;28;19961;-46
2021/04/16 04:05:22;;;;;;;;;;;;;;;-3.02;72.34;93706.97;5091904;28;20006;-46
2021/04/16 04:07:47;;;;;;;;;;;;;;;-3.02;72.20;93703.50;5091899;28;19916;-47
2021/04/16 04:10:13;;;;;;;;;;;;;;;-2.96;71.34;93704.38;5091921;28;19919;-46
2021/04/16 04:12:38;;;;;;;;;;;;;;;-2.81;70.21;93705.22;5091865;28;19912;-46
2021/04/16 04:15:04;;;;;;;;;;;;;;;-3.00;71.28;93711.91;5092157;28;19919;-49
2021/04/16 04:17:31;;;;;;;;;;;;;;;-2.94;71.00;93712.78;5092058;28;19912;-46
2021/04/16 04:19:56;;;;;;;;;;;;;;;-2.80;70.87;93706.72;5092134;28;19947;-47
2021/04/16 04:22:22;;;;;;;;;;;;;;;-2.80;71.24;93720.22;5091751;28;20343;-47
2021/04/16 04:24:47;;;;;;;;;;;;;;;-2.78;71.12;93715.13;5091756;28;19923;-46
2021/04/16 04:27:13;;;;;;;;;;;;;;;-2.93;72.63;93716.97;5092074;28;20007;-46
2021/04/16 04:29:38;;;;;;;;;;;;;;;-2.66;71.80;93719.56;5091983;28;20379;-47
2021/04/16 04:32:04;;;;;;;;;;;;;;;-2.57;71.90;93722.22;5091722;28;19938;-48
2021/04/16 04:34:29;;;;;;;;;;;;;;;-2.33;71.66;93717.59;5091919;28;19962;-46
2021/04/16 04:36:55;;;;;;;;;;;;;;;-2.26;71.74;93714.56;5091678;28;19961;-46
2021/04/16 04:39:21;;;;;;;;;;;;;;;-1.92;70.96;93714.03;5091618;28;19912;-47
2021/04/16 04:41:46;;;;;;;;;;;;;;;-1.74;70.58;93716.59;5089417;28;19912;-48
2021/04/16 04:44:11;;;;;;;;;;;;;;;-1.45;69.77;93715.91;5071392;28;19912;-46
2021/04/16 04:46:37;;;;;;;;;;;;;;;-1.24;68.12;93714.06;5071391;28;19917;-46
2021/04/16 04:49:03;;;;;;;;;;;;;;;-1.32;67.60;93721.78;5071649;28;19920;-46
2021/04/16 04:51:28;;;;;;;;;;;;;;;-1.25;67.47;93718.72;5071529;28;20387;-49
2021/04/16 04:59:59;;;;;;;;;;;;;;;-0.97;67.61;93719.19;5071461;28;20342;-48
2021/04/16 05:02:24;;;;;;;;;;;;;;;-0.95;67.57;93716.75;5071156;28;19920;-47
2021/04/16 05:04:50;;;;;;;;;;;;;;;-0.94;67.69;93712.84;5072713;28;19948;-46
2021/04/16 05:07:15;;;;;;;;;;;;;;;-0.82;68.82;93719.94;5074626;28;19919;-46
2021/04/16 05:09:40;;;;;;;;;;;;;;;-0.71;68.60;93727.50;5074688;28;19913;-47
2021/04/16 05:12:06;;;;;;;;;;;;;;;-0.48;68.69;93721.94;5074643;28;19955;-46
2021/04/16 05:14:31;;;;;;;;;;;;;;;-0.31;67.47;93716.75;5074827;28;19913;-47
2021/04/16 05:16:57;;;;;;;;;;;;;;;-0.18;66.82;93720.66;5074632;28;19916;-46
2021/04/16 05:19:22;;;;;;;;;;;;;;;-0.11;66.33;93722.94;5074366;28;19917;-47
2021/04/16 05:21:49;;;;;;;;;;;;;;;-0.03;66.26;93724.06;5074698;28;19927;-46
2021/04/16 05:24:15;;;;;;;;;;;;;;;-0.05;67.13;93721.06;5074033;28;19971;-47
2021/04/16 05:26:40;;;;;;;;;;;;;;;0.00;66.99;93723.09;5074700;28;19948;-47
2021/04/16 05:29:06;;;;;;;;;;;;;;;0.20;67.08;93721.59;5074270;28;19912;-46
2021/04/16 05:31:31;;;;;;;;;;;;;;;0.43;66.60;93726.09;5074500;28;19962;-47
2021/04/16 05:33:57;;;;;;;;;;;;;;;0.58;66.14;93730.22;5074702;28;20045;-47
2021/04/16 05:36:22;;;;;;;;;;;;;;;0.77;65.69;93734.13;5074486;28;20427;-47
2021/04/16 05:38:47;;;;;;;;;;;;;;;1.20;64.67;93724.16;5074098;28;19939;-46
2021/04/16 05:41:12;;;;;;;;;;;;;;;1.65;63.89;93722.50;5090801;28;19927;-46
2021/04/16 05:43:38;;;;;;;;;;;;;;;2.01;61.87;93731.91;5094453;28;19912;-46
2021/04/16 05:46:03;;;;;;;;;;;;;;;2.38;62.33;93727.13;5094265;28;19912;-46
2021/04/16 05:48:28;;;;;;;;;;;;;;;2.73;62.18;93721.31;5094527;28;19912;-47
2021/04/16 05:50:54;;;;;;;;;;;;;;;2.97;60.88;93730.53;5094158;28;20314;-46
2021/04/16 05:53:19;;;;;;;;;;;;;;;3.10;60.42;93721.88;5093986;28;19912;-46
2021/04/16 05:55:44;;;;;;;;;;;;;;;3.35;60.54;93731.09;5093875;28;19965;-46
2021/04/16 05:58:09;;;;;;;;;;;;;;;3.64;59.86;93719.66;5093852;28;20015;-45
2021/04/16 06:00:35;;;;;;;;;;;;;;;4.15;59.46;93721.09;5094204;28;19991;-47
2021/04/16 06:03:00;;;;;;;;;;;;;;;5.22;57.06;93718.13;5094243;28;20330;-47
2021/04/16 06:05:26;;;;;;;;;;;;;;;6.28;53.17;93712.56;5093804;28;19912;-46
2021/04/16 06:07:54;;;;;;;;;;;;;;;6.17;51.38;93710.69;5093770;28;19912;-45
2021/04/16 06:10:20;;;;;;;;;;;;;;;6.55;49.56;93708.75;5093669;28;19912;-46
2021/04/16 06:12:45;;;;;;;;;;;;;;;6.90;49.25;93711.31;5093715;28;19912;-46
2021/04/16 06:15:12;;;;;;;;;;;;;;;7.42;46.37;93717.09;5093823;28;19912;-46
2021/04/16 06:17:37;;;;;;;;;;;;;;;8.20;45.29;93710.34;5093812;28;19927;-47
2021/04/16 06:20:03;;;;;;;;;;;;;;;9.27;43.94;93711.25;5093575;28;20322;-47
2021/04/16 06:22:29;;;;;;;;;;;;;;;10.14;40.58;93709.00;5093767;28;19969;-46
2021/04/16 06:24:54;;;;;;;;;;;;;;;10.62;40.66;93711.75;5093516;28;19916;-45
2021/04/16 06:27:20;;;;;;;;;;;;;;;11.16;39.43;93708.00;5093365;28;20003;-48
2021/04/16 06:29:45;;;;;;;;;;;;;;;10.81;37.64;93705.97;5093750;28;19918;-47
2021/04/16 06:32:11;;;;;;;;;;;;;;;10.61;39.40;93704.03;5093367;28;19999;-46
2021/04/16 06:34:37;;;;;;;;;;;;;;;10.42;40.56;93704.25;5075272;28;19916;-47
2021/04/16 06:37:02;;;;;;;;;;;;;;;10.98;39.13;93702.75;5093575;28;19996;-47
2021/04/16 06:39:27;;;;;;;;;;;;;;;11.52;37.78;93707.91;5092956;28;20400;-49
2021/04/16 06:41:53;;;;;;;;;;;;;;;11.06;38.79;93707.03;5090420;28;19951;-46
2021/04/16 06:44:21;;;;;;;;;;;;;;;11.66;36.24;93705.75;5072866;28;20408;-47
2021/04/16 06:46:47;;;;;;;;;;;;;;;11.81;36.11;93706.56;5073063;28;19923;-46
2021/04/16 06:49:14;;;;;;;;;;;;;;;12.64;35.26;93701.03;5038180;28;19912;-46
2021/04/16 06:51:44;;;;;;;;;;;;;;;13.26;34.34;93700.34;5072927;28;19939;-46
2021/04/16 06:54:11;;;;;;;;;;;;;;;14.23;32.63;93703.13;5072663;28;20046;-47
2021/04/16 06:56:41;;;;;;;;;;;;;;;15.34;30.25;93701.94;5055112;28;19913;-47
2021/04/16 06:59:06;;;;;;;;;;;;;;;15.76;27.84;93710.19;5054797;28;19912;-48
2021/04/16 07:01:36;;;;;;;;;;;;;;;16.39;27.35;93710.97;5072349;28;20007;-45
2021/04/16 07:04:11;;;;;;;;;;;;;;;16.87;27.96;93702.75;5054578;28;19913;-46
2021/04/16 07:06:36;;;;;;;;;;;;;;;17.47;26.08;93706.50;5072803;28;19919;-43
2021/04/16 07:09:05;;;;;;;;;;;;;;;18.46;24.19;93703.09;5072702;28;20362;-44
2021/04/16 07:11:38;;;;;;;;;;;;;;;18.70;23.59;93710.34;5054543;28;19912;-44
2021/04/16 07:14:04;;;;;;;;;;;;;;;19.43;22.29;93704.75;5072644;28;20007;-44
2021/04/16 07:16:33;;;;;;;;;;;;;;;19.51;23.15;93705.28;5072612;28;20003;-47
2021/04/16 07:19:02;;;;;;;;;;;;;;;20.10;23.03;93706.97;5072632;28;20333;-45
2021/04/16 07:21:28;;;;;;;;;;;;;;;20.71;22.02;93710.72;5072364;28;19928;-44
2021/04/16 07:23:54;;;;;;;;;;;;;;;21.18;21.22;93711.47;5072545;28;19913;-45
2021/04/16 07:26:31;;;;;;;;;;;;;;;21.58;21.04;93711.00;5072487;28;20346;-45
2021/04/16 07:28:57;;;;;;;;;;;;;;;22.00;20.20;93712.72;5071958;28;19916;-44
2021/04/16 07:31:26;;;;;;;;;;;;;;;21.97;20.00;93716.75;5072351;28;19923;-44
2021/04/16 07:33:52;;;;;;;;;;;;;;;22.47;19.82;93713.94;5072043;28;20361;-46
2021/04/16 07:36:25;;;;;;;;;;;;;;;22.97;19.42;93704.66;5072048;28;19917;-45
2021/04/16 07:39:11;;;;;;;;;;;;;;;23.53;17.81;93710.38;5054003;28;20445;-45
2021/04/16 07:41:38;;;;;;;;;;;;;;;23.38;17.78;93710.31;5060082;28;20330;-44
2021/04/16 07:44:04;;;;;;;;;;;;;;;23.50;17.43;93703.19;5070714;28;19912;-43
2021/04/16 07:46:29;;;;;;;;;;;;;;;23.38;17.16;93705.41;5092160;28;19912;-45
2021/04/16 07:49:09;;;;;;;;;;;;;;;23.83;17.34;93705.50;5092466;28;20007;-44
2021/04/16 07:51:34;;;;;;;;;;;;;;;23.86;16.94;93707.81;5092316;28;20353;-44
2021/04/16 07:54:11;;;;;;;;;;;;;;;23.59;16.28;93702.22;5092369;28;19912;-46
2021/04/16 07:56:36;;;;;;;;;;;;;;;23.85;17.34;93705.63;5092271;28;19919;-44
2021/04/16 07:59:04;;;;;;;;;;;;;;;24.41;16.68;93701.97;5092317;28;19912;-45
2021/04/16 08:01:34;;;;;;;;;;;;;;;24.34;15.72;93700.97;5092231;28;19939;-47
2021/04/16 08:04:19;;;;;;;;;;;;;;;24.63;15.99;93714.28;5092261;28;19912;-45
2021/04/16 08:06:49;;;;;;;;;;;;;;;23.99;16.52;93714.78;5077689;28;20002;-44
2021/04/16 08:09:26;;;;;;;;;;;;;;;23.90;16.46;93710.84;5092232;28;19912;-45
2021/04/16 08:11:52;;;;;;;;;;;;;;;24.26;16.49;93703.41;5092247;28;19920;-45
2021/04/16 08:14:21;;;;;;;;;;;;;;;24.16;16.27;93707.84;5091941;28;20417;-44
2021/04/16 08:16:54;;;;;;;;;;;;;;;24.67;16.12;93714.47;5092214;28;19955;-44
2021/04/16 08:19:30;;;;;;;;;;;;;;;24.39;16.29;93707.53;5073849;28;19916;-45
2021/04/16 08:22:00;;;;;;;;;;;;;;;23.85;15.88;93723.28;5092068;28;20361;-45
2021/04/16 08:24:28;;;;;;;;;;;;;;;23.26;18.10;93716.75;5073828;28;19912;-43
2021/04/16 08:27:08;;;;;;;;;;;;;;;24.54;15.41;93715.28;5073804;28;19919;-44
2021/04/16 08:30:03;;;;;;;;;;;;;;;24.95;14.88;93712.25;5091478;28;19920;-44
2021/04/16 08:32:36;;;;;;;;;;;;;;;25.23;14.94;93719.88;5019579;28;19913;-43
2021/04/16 08:35:01;;;;;;;;;;;;;;;23.22;16.80;93710.16;5092001;28;19919;-46
2021/04/16 08:37:36;;;;;;;;;;;;;;;24.20;16.09;93708.03;5091912;28;20314;-45
2021/04/16 08:40:02;;;;;;;;;;;;;;;24.43;15.87;93708.44;5074955;28;19920;-47
2021/04/16 08:42:30;;;;;;;;;;;;;;;23.23;15.52;93711.66;5069403;28;19928;-45
2021/04/16 08:45:00;;;;;;;;;;;;;;;23.51;14.97;93713.09;5057587;28;20310;-43
2021/04/16 08:47:33;;;;;;;;;;;;;;;24.80;14.32;93711.59;5057060;28;19913;-46
2021/04/16 08:49:59;;;;;;;;;;;;;;;24.24;14.29;93713.88;5075372;28;19963;-44
2021/04/16 08:52:24;;;;;;;;;;;;;;;24.59;14.31;93716.94;5075269;28;19912;-43
2021/04/16 08:54:49;;;;;;;;;;;;;;;24.99;14.48;93712.44;5075192;28;20366;-44
2021/04/16 08:57:17;;;;;;;;;;;;;;;24.68;13.20;93707.47;5057023;28;19959;-43
2021/04/16 08:59:54;;;;;;;;;;;;;;;24.17;13.74;93718.47;5075087;28;20367;-43
2021/04/16 09:02:20;;;;;;;;;;;;;;;25.06;12.91;93695.09;5074751;28;19917;-43
2021/04/16 09:04:47;;;;;;;;;;;;;;;25.02;14.12;93680.81;5074713;28;19917;-44
2021/04/16 09:07:31;;;;;;;;;;;;;;;24.55;13.94;93691.34;5056932;28;19912;-44
2021/04/16 09:09:57;;;;;;;;;;;;;;;24.51;12.86;93691.16;5074739;28;19955;-43
2021/04/16 09:12:37;;;;;;;;;;;;;;;25.38;12.72;93682.38;5056785;28;19920;-44
2021/04/16 09:15:03;;;;;;;;;;;;;;;25.40;12.09;93667.63;5074889;28;20003;-49
2021/04/16 09:17:47;;;;;;;;;;;;;;;25.14;13.69;93664.41;5056594;28;19979;-43
2021/04/16 09:20:12;;;;;;;;;;;;;;;25.24;12.99;93656.34;5074406;28;20015;-44
2021/04/16 09:22:41;;;;;;;;;;;;;;;25.49;12.52;93647.53;5074701;28;20003;-43
2021/04/16 09:25:27;;;;;;;;;;;;;;;25.42;12.48;93648.69;5074453;28;19954;-44
2021/04/16 09:27:52;;;;;;;;;;;;;;;25.23;13.85;93643.56;5074215;28;20403;-43
2021/04/16 09:30:17;;;;;;;;;;;;;;;25.04;14.93;93634.94;5074344;28;20011;-44
2021/04/16 09:32:52;;;;;;;;;;;;;;;25.22;13.87;93630.81;5074631;28;19996;-43
2021/04/16 09:35:17;;;;;;;;;;;;;;;25.36;13.33;93625.06;5074461;28;20384;-44
2021/04/16 09:37:45;;;;;;;;;;;;;;;25.08;13.51;93630.22;5074481;28;19943;-44
2021/04/16 09:40:13;;;;;;;;;;;;;;;25.36;13.51;93617.28;5082252;28;19920;-45
2021/04/16 09:42:42;;;;;;;;;;;;;;;25.55;13.54;93618.81;5094118;28;19938;-45
2021/04/16 09:45:28;;;;;;;;;;;;;;;26.59;12.74;93619.41;5076361;28;19916;-46
2021/04/16 09:47:56;;;;;;;;;;;;;;;26.19;13.88;93610.09;5079820;28;19912;-46
2021/04/16 09:50:23;;;;;;;;;;;;;;;25.37;14.32;93615.91;5094042;28;20007;-47
2021/04/16 09:52:49;;;;;;;;;;;;;;;25.55;14.09;93608.19;5076099;28;19942;-45
2021/04/16 09:55:33;;;;;;;;;;;;;;;26.23;13.03;93601.75;5076376;28;19969;-47
2021/04/16 09:57:58;;;;;;;;;;;;;;;25.46;13.27;93605.69;5094331;28;19951;-43
2021/04/16 10:00:35;;;;;;;;;;;;;;;24.53;14.35;93607.31;5094002;28;19966;-45
2021/04/16 10:03:19;;;;;;;;;;;;;;;23.88;14.23;93605.66;5093964;28;19923;-47
2021/04/16 10:05:44;;;;;;;;;;;;;;;24.57;15.46;93609.56;5093970;28;19961;-45
2021/04/16 10:08:22;;;;;;;;;;;;;;;25.08;13.67;93612.53;5076011;28;19916;-44
2021/04/16 10:10:47;;;;;;;;;;;;;;;25.14;13.42;93599.41;5093866;28;20081;-47
2021/04/16 10:13:18;;;;;;;;;;;;;;;25.66;13.98;93598.06;5093825;28;19951;-44
2021/04/16 10:15:45;;;;;;;;;;;;;;;24.73;14.47;93601.81;5094004;28;19912;-43
2021/04/16 10:18:27;;;;;;;;;;;;;;;25.62;15.44;93597.16;5093661;28;19912;-48
2021/04/16 10:20:54;;;;;;;;;;;;;;;24.93;14.75;93588.59;5075588;28;19916;-44
2021/04/16 10:23:22;;;;;;;;;;;;;;;25.79;14.14;93580.19;5093469;28;20284;-42
2021/04/16 10:50:55;;;;;;;;;;;;;;;22.54;16.79;93561.66;5072871;28;19919;-43
2021/04/16 12:39:32;;;;;;;;;;;;;;;17.30;19.66;93500.84;5057683;28;19919;-43
2021/04/16 12:41:58;;;;;;;;;;;;;;;17.23;21.46;93501.00;5078659;28;19924;-43
2021/04/16 12:44:37;;;;;;;;;;;;;;;17.14;21.09;93493.41;5095405;28;19962;-43
2021/04/16 12:47:12;;;;;;;;;;;;;;;16.90;21.51;93492.41;5077335;28;19920;-43
2021/04/16 12:49:38;;;;;;;;;;;;;;;17.20;20.58;93482.66;5095565;28;19920;-44
2021/04/16 12:52:05;;;;;;;;;;;;;;;17.28;22.34;93489.53;5095651;28;20308;-44
2021/04/16 12:54:33;;;;;;;;;;;;;;;16.82;22.32;93488.31;5095250;28;19966;-43
2021/04/16 12:56:59;;;;;;;;;;;;;;;16.98;20.74;93478.31;5077155;28;19912;-43
2021/04/16 12:59:24;;;;;;;;;;;;;;;16.72;20.44;93473.66;5077300;28;19998;-42
2021/04/16 13:01:51;;;;;;;;;;;;;;;16.21;22.37;93480.38;5095061;28;20421;-42
2021/04/16 13:04:17;;;;;;;;;;;;;;;16.16;21.89;93489.72;5095427;28;20338;-42
2021/04/16 13:06:42;;;;;;;;;;;;;;;15.95;21.85;93490.31;5076915;28;19961;-43
2021/04/16 13:09:09;;;;;;;;;;;;;;;16.07;23.25;93488.41;5094957;28;19923;-45
2021/04/16 13:11:34;;;;;;;;;;;;;;;16.01;23.15;93481.66;5094866;28;19912;-43
2021/04/16 13:13:59;;;;;;;;;;;;;;;16.04;21.58;93478.44;5095165;28;19919;-44
2021/04/16 13:16:25;;;;;;;;;;;;;;;16.29;23.08;93478.16;5094868;28;19935;-42
2021/04/16 13:18:51;;;;;;;;;;;;;;;16.26;22.70;93482.88;5094803;28;19912;-42
2021/04/16 13:21:19;;;;;;;;;;;;;;;16.31;21.96;93481.09;5077008;28;19916;-42
2021/04/16 13:23:44;;;;;;;;;;;;;;;16.03;21.47;93481.81;5094993;28;19912;-43
2021/04/16 13:26:09;;;;;;;;;;;;;;;15.78;22.39;93487.63;5093762;28;19920;-42
2021/04/16 13:28:35;;;;;;;;;;;;;;;15.67;22.01;93483.34;5094800;28;19912;-44
2021/04/16 13:31:00;;;;;;;;;;;;;;;15.46;22.96;93476.84;5094611;28;19948;-45
2021/04/16 13:33:25;;;;;;;;;;;;;;;15.24;23.76;93473.06;5094388;28;19965;-46
2021/04/16 13:35:54;;;;;;;;;;;;;;;15.35;24.53;93472.50;5076678;28;20319;-44
2021/04/16 13:38:27;;;;;;;;;;;;;;;15.17;23.11;93474.63;5094725;28;19912;-45
2021/04/16 13:40:53;;;;;;;;;;;;;;;15.35;23.83;93480.88;5080136;28;19921;-46
2021/04/16 13:43:19;;;;;;;;;;;;;;;15.13;23.43;93473.59;5059571;28;19923;-44
2021/04/16 13:45:44;;;;;;;;;;;;;;;15.35;23.11;93475.28;5054349;28;19913;-47
2021/04/16 13:48:09;;;;;;;;;;;;;;;15.31;23.28;93479.81;5054086;28;20288;-46
2021/04/16 13:50:35;;;;;;;;;;;;;;;15.45;23.30;93476.09;5054600;28;19913;-45
2021/04/16 13:53:00;;;;;;;;;;;;;;;15.18;24.16;93484.44;5053985;28;20391;-45
2021/04/16 13:55:25;;;;;;;;;;;;;;;14.75;22.92;93479.66;5053797;28;19913;-46
2021/04/16 13:57:51;;;;;;;;;;;;;;;14.74;24.00;93483.00;5053836;28;19913;-46
2021/04/16 14:00:18;;;;;;;;;;;;;;;14.86;24.77;93476.34;5053847;28;19912;-45
2021/04/16 14:02:49;;;;;;;;;;;;;;;14.77;23.68;93477.03;5053965;28;20007;-45
2021/04/16 14:05:15;;;;;;;;;;;;;;;14.55;23.37;93477.31;5036664;28;20019;-45
2021/04/16 14:07:41;;;;;;;;;;;;;;;14.60;25.22;93473.53;5053907;28;19939;-47
2021/04/16 14:10:07;;;;;;;;;;;;;;;14.12;24.76;93467.59;5053646;28;20380;-45
2021/04/16 14:12:32;;;;;;;;;;;;;;;14.50;23.86;93470.72;5053910;28;19913;-45
2021/04/16 14:14:57;;;;;;;;;;;;;;;14.64;23.62;93476.66;5053511;28;19917;-45
2021/04/16 14:17:24;;;;;;;;;;;;;;;14.48;24.50;93478.13;5053397;28;19920;-46
2021/04/16 14:19:52;;;;;;;;;;;;;;;14.69;24.07;93475.66;5035662;28;19912;-45
2021/04/16 14:22:27;;;;;;;;;;;;;;;14.67;24.20;93479.00;5053300;28;19912;-45
2021/04/16 14:24:53;;;;;;;;;;;;;;;14.74;23.51;93474.66;5035590;28;19917;-45
2021/04/16 14:27:18;;;;;;;;;;;;;;;14.55;24.37;93485.66;5053549;28;20003;-46
2021/04/16 14:29:44;;;;;;;;;;;;;;;14.54;25.55;93482.13;5053202;28;19935;-45
2021/04/16 14:32:10;;;;;;;;;;;;;;;14.52;25.46;93484.00;5053372;28;19912;-45
2021/04/16 14:34:35;;;;;;;;;;;;;;;14.52;25.35;93484.00;5035464;28;19913;-46
2021/04/16 14:37:00;;;;;;;;;;;;;;;14.41;24.85;93491.56;5053432;28;19919;-46
2021/04/16 14:39:27;;;;;;;;;;;;;;;14.38;25.50;93484.34;5054839;28;20372;-47
2021/04/16 14:41:54;;;;;;;;;;;;;;;14.25;26.32;93495.06;5073234;28;20011;-45
2021/04/16 14:44:20;;;;;;;;;;;;;;;14.28;26.07;93488.34;5092093;28;20409;-45
2021/04/16 14:46:49;;;;;;;;;;;;;;;14.26;26.08;93499.28;5093378;28;19943;-45
2021/04/16 14:49:14;;;;;;;;;;;;;;;14.27;25.31;93493.16;5093106;28;19912;-46
2021/04/16 14:51:41;;;;;;;;;;;;;;;14.24;25.67;93491.53;5092928;28;19935;-47
2021/04/16 14:54:09;;;;;;;;;;;;;;;14.18;25.82;93496.59;5075098;28;20387;-46
2021/04/16 14:56:34;;;;;;;;;;;;;;;14.07;26.84;93488.75;5075165;28;19919;-45
2021/04/16 14:59:01;;;;;;;;;;;;;;;13.91;27.46;93500.56;5093215;28;19912;-45
2021/04/16 15:01:29;;;;;;;;;;;;;;;13.84;26.75;93493.78;5074617;28;19981;-45
2021/04/16 15:03:54;;;;;;;;;;;;;;;13.54;26.84;93500.31;5093131;28;19935;-46
2021/04/16 15:06:21;;;;;;;;;;;;;;;13.31;28.12;93508.09;5092827;28;20387;-45